createdAt,value
2022-11-17T07:15:46.486Z,140763.00
2022-11-17T07:20:50.075Z,140763.00
2022-11-17T07:25:55.901Z,140667.16
2022-11-17T07:31:02.967Z,140798.56
2022-11-17T07:36:09.449Z,140769.13
2022-11-17T07:41:15.189Z,140818.28
2022-11-17T07:46:20.588Z,140868.69
2022-11-17T07:51:26.683Z,140667.16
2022-11-17T07:56:30.339Z,140786.31
2022-11-17T08:01:35.308Z,140737.19
2022-11-17T08:06:38.950Z,140890.84
2022-11-17T08:12:00.615Z,140868.69
2022-11-17T08:17:05.708Z,140865.00
2022-11-17T08:22:09.304Z,140853.91
2022-11-17T08:27:15.375Z,140807.22
2022-11-17T08:32:20.432Z,140863.78
2022-11-17T08:37:24.146Z,140882.19
2022-11-17T08:42:27.739Z,140901.88
2022-11-17T08:47:32.755Z,140883.44
2022-11-17T08:52:36.565Z,140880.97
2022-11-17T08:57:40.244Z,140900.66
2022-11-17T09:02:45.990Z,140877.28
2022-11-17T09:07:49.716Z,140869.91
2022-11-17T09:12:57.038Z,140818.28
2022-11-17T09:18:03.120Z,140835.50
2022-11-17T09:23:07.060Z,140826.84
2022-11-17T09:28:10.718Z,140905.56
2022-11-17T09:33:15.706Z,140728.59
2022-11-17T09:38:19.381Z,140926.50
2022-11-17T09:43:30.072Z,140957.25
2022-11-17T09:48:42.573Z,140947.41
2022-11-17T09:53:55.274Z,140906.81
2022-11-17T09:59:05.367Z,140924.03
2022-11-17T10:04:14.239Z,140946.19
2022-11-17T10:09:30.451Z,140959.69
2022-11-17T10:14:40.659Z,140974.47
2022-11-17T10:19:48.319Z,140992.91
2022-11-17T10:24:57.904Z,140637.59
2022-11-17T10:30:03.730Z,140872.38
2022-11-17T10:35:19.384Z,140796.13
2022-11-17T10:40:26.056Z,140754.41
2022-11-17T10:45:30.409Z,140978.16
2022-11-17T10:50:35.697Z,140931.41
2022-11-17T10:55:39.923Z,141000.28
2022-11-17T11:00:45.712Z,141006.47
2022-11-17T11:05:59.225Z,141005.25
2022-11-17T11:11:07.667Z,140988.00
2022-11-17T11:16:13.673Z,140988.00
2022-11-17T11:21:31.660Z,140979.41
2022-11-17T11:26:51.863Z,140979.41
2022-11-17T11:32:10.708Z,140904.34
2022-11-17T11:37:17.318Z,140890.84
2022-11-17T11:42:37.937Z,140959.69
2022-11-17T11:47:54.099Z,140956.03
2022-11-17T11:53:05.535Z,140802.25
2022-11-17T11:58:16.444Z,140759.31
2022-11-17T12:03:26.373Z,140787.53
2022-11-17T12:08:42.183Z,140844.09
2022-11-17T12:14:02.186Z,140985.53
2022-11-17T12:19:45.086Z,140958.47
2022-11-17T12:24:50.347Z,140962.16
2022-11-17T12:29:54.041Z,140949.88
2022-11-17T12:35:25.692Z,140956.03
2022-11-17T12:40:47.770Z,140931.41
2022-11-17T12:46:07.888Z,140910.47
2022-11-17T12:51:23.336Z,140946.19
2022-11-17T12:56:51.775Z,140951.09
2022-11-17T13:02:05.563Z,140967.06
2022-11-17T13:07:19.794Z,140791.22
2022-11-17T13:12:26.070Z,140965.84
2022-11-17T13:17:32.810Z,140890.84
2022-11-17T13:22:41.618Z,140978.16
2022-11-17T13:27:53.145Z,140933.88
2022-11-17T13:33:04.092Z,140775.25
2022-11-17T13:38:19.494Z,140952.34
2022-11-17T13:43:45.621Z,140935.09
2022-11-17T13:48:51.170Z,140919.13
2022-11-17T13:53:57.231Z,140680.63
2022-11-17T13:59:05.071Z,140906.81
2022-11-17T14:04:20.127Z,140903.13
2022-11-17T14:09:25.368Z,140729.81
2022-11-17T14:14:37.948Z,140689.22
2022-11-17T14:19:43.831Z,140664.66
2022-11-17T14:24:47.875Z,140867.47
2022-11-17T14:29:52.865Z,140865.00
2022-11-17T14:34:56.651Z,140839.19
2022-11-17T14:40:05.137Z,140745.75
2022-11-17T14:45:14.312Z,140743.31
2022-11-17T14:50:19.364Z,140809.69
2022-11-17T14:55:23.119Z,140856.38
2022-11-17T15:00:28.445Z,140788.75
2022-11-17T15:05:32.070Z,140809.69
2022-11-17T15:10:38.009Z,140755.63
2022-11-17T15:15:43.072Z,140774.03
2022-11-17T15:20:47.282Z,140719.94
2022-11-17T15:25:51.155Z,140791.22
2022-11-17T15:30:56.574Z,140798.56
2022-11-17T15:36:04.412Z,140530.78
2022-11-17T15:41:09.396Z,140756.84
2022-11-17T15:46:19.543Z,140753.19
2022-11-17T15:51:25.189Z,140561.47
2022-11-17T15:56:31.322Z,140377.34
2022-11-17T16:01:37.817Z,140744.53
2022-11-17T16:06:42.884Z,140761.75
2022-11-17T16:11:46.617Z,140663.41
2022-11-17T16:16:51.729Z,140733.50
2022-11-17T16:21:55.576Z,140723.69
2022-11-17T16:26:59.265Z,140658.50
2022-11-17T16:32:04.541Z,140756.84
2022-11-17T16:37:08.527Z,140750.72
2022-11-17T16:42:12.283Z,140388.41
2022-11-17T16:47:17.519Z,140728.59
2022-11-17T16:52:20.970Z,140695.41
2022-11-17T16:57:47.852Z,140697.88
2022-11-17T17:02:53.885Z,140577.41
2022-11-17T17:07:57.840Z,140688.00
2022-11-17T17:13:01.574Z,140518.47
2022-11-17T17:18:06.761Z,140675.72
2022-11-17T17:23:10.192Z,140652.38
2022-11-17T17:28:14.005Z,140557.81
2022-11-17T17:33:19.163Z,140652.38
2022-11-17T17:38:22.607Z,140620.44
2022-11-17T17:43:26.294Z,140420.31
2022-11-17T17:48:31.921Z,140530.78
2022-11-17T17:53:41.934Z,140641.34
2022-11-17T17:58:48.035Z,140393.31
2022-11-17T18:04:00.885Z,140586.06
2022-11-17T18:09:24.426Z,140274.25
2022-11-17T18:14:28.324Z,140779.00
2022-11-17T18:19:36.270Z,140776.50
2022-11-17T18:24:42.176Z,140718.72
2022-11-17T18:29:45.802Z,140660.97
2022-11-17T18:35:02.227Z,140635.16
2022-11-17T18:40:12.819Z,140652.38
2022-11-17T18:45:16.523Z,140649.94
2022-11-17T18:50:57.848Z,140637.59
2022-11-17T18:56:03.774Z,140637.59
2022-11-17T19:01:09.247Z,140638.88
2022-11-17T19:06:16.424Z,140474.34
2022-11-17T19:11:23.064Z,140611.84
2022-11-17T19:16:27.584Z,140608.13
2022-11-17T19:21:35.084Z,140606.91
2022-11-17T19:26:38.714Z,140583.59
2022-11-17T19:31:42.639Z,140497.59
2022-11-17T19:36:47.759Z,140577.41
2022-11-17T19:41:54.529Z,140432.56
2022-11-17T19:46:58.190Z,140554.13
2022-11-17T19:52:12.391Z,140433.81
2022-11-17T19:57:16.177Z,140133.25
2022-11-17T20:02:19.855Z,140503.75
2022-11-17T20:07:27.920Z,140446.09
2022-11-17T20:12:34.227Z,140436.25
2022-11-17T20:17:37.823Z,140414.16
2022-11-17T20:22:48.627Z,140387.19
2022-11-17T20:27:52.602Z,140395.75
2022-11-17T20:33:00.541Z,140335.63
2022-11-17T20:38:07.316Z,140300.03
2022-11-17T20:43:12.649Z,140376.13
2022-11-17T20:48:16.615Z,140372.44
2022-11-17T20:53:30.581Z,140081.81
2022-11-17T20:58:38.633Z,140400.66
2022-11-17T21:03:42.593Z,140372.44
2022-11-17T21:08:47.826Z,140199.44
2022-11-17T21:13:52.708Z,140290.22
2022-11-17T21:18:56.619Z,140334.41
2022-11-17T21:24:04.996Z,140322.13
2022-11-17T21:29:08.695Z,140271.78
2022-11-17T21:34:15.450Z,140312.31
2022-11-17T21:39:20.882Z,140309.88
2022-11-17T21:44:27.868Z,140308.63
2022-11-17T21:49:31.793Z,140300.03
2022-11-17T21:54:37.101Z,140193.38
2022-11-17T21:59:41.275Z,140155.34
2022-11-17T22:04:45.093Z,140279.19
2022-11-17T22:09:52.297Z,140273.03
2022-11-17T22:14:55.848Z,140265.69
2022-11-17T22:19:59.461Z,140300.03
2022-11-17T22:25:29.962Z,140281.66
2022-11-17T22:30:31.087Z,140260.78
2022-11-17T22:35:38.443Z,140263.22
2022-11-17T22:40:46.008Z,140292.66
